sensor_id;sensor_type;location;lat;lon;timestamp;pressure;altitude;pressure_sealevel;temperature;humidity
37694;BME280;23531;50.122;8.644;2023-02-03T00:01:52;101647.94;;;9.31;73.07
37694;BME280;23531;50.122;8.644;2023-02-03T00:03:53;101633.69;;;9.30;72.63
37694;BME280;23531;50.122;8.644;2023-02-03T00:05:54;101614.94;;;9.22;72.85
37694;BME280;23531;50.122;8.644;2023-02-03T00:07:56;101604.03;;;9.16;73.06
37694;BME280;23531;50.122;8.644;2023-02-03T00:09:57;101587.28;;;9.14;72.83
37694;BME280;23531;50.122;8.644;2023-02-03T00:11:58;101579.06;;;9.07;73.36
37694;BME280;23531;50.122;8.644;2023-02-03T00:14:00;101575.72;;;9.05;73.72
37694;BME280;23531;50.122;8.644;2023-02-03T00:16:01;101577.22;;;9.07;73.69
37694;BME280;23531;50.122;8.644;2023-02-03T00:18:06;101577.53;;;9.21;73.64
37694;BME280;23531;50.122;8.644;2023-02-03T00:20:08;101576.88;;;9.19;73.45
37694;BME280;23531;50.122;8.644;2023-02-03T00:22:10;101572.88;;;9.06;73.71
37694;BME280;23531;50.122;8.644;2023-02-03T00:24:12;101574.50;;;9.16;73.53
37694;BME280;23531;50.122;8.644;2023-02-03T00:26:15;101579.25;;;9.14;73.75
37694;BME280;23531;50.122;8.644;2023-02-03T00:28:16;101576.41;;;8.99;73.71
37694;BME280;23531;50.122;8.644;2023-02-03T00:30:18;101579.25;;;9.14;74.01
37694;BME280;23531;50.122;8.644;2023-02-03T00:32:19;101577.44;;;8.98;73.81
37694;BME280;23531;50.122;8.644;2023-02-03T00:34:22;101605.25;;;8.97;73.95
37694;BME280;23531;50.122;8.644;2023-02-03T00:36:24;101593.03;;;9.02;74.03
37694;BME280;23531;50.122;8.644;2023-02-03T00:38:26;101595.88;;;9.01;74.00
37694;BME280;23531;50.122;8.644;2023-02-03T00:40:27;101602.06;;;8.93;74.06
37694;BME280;23531;50.122;8.644;2023-02-03T00:42:28;101607.44;;;8.93;74.20
37694;BME280;23531;50.122;8.644;2023-02-03T00:44:30;101603.06;;;8.92;74.80
37694;BME280;23531;50.122;8.644;2023-02-03T00:46:31;101603.09;;;8.84;74.90
37694;BME280;23531;50.122;8.644;2023-02-03T00:48:35;101601.25;;;8.85;75.27
37694;BME280;23531;50.122;8.644;2023-02-03T00:50:37;101608.81;;;8.89;75.39
37694;BME280;23531;50.122;8.644;2023-02-03T00:52:39;101596.72;;;8.85;75.48
37694;BME280;23531;50.122;8.644;2023-02-03T00:54:40;101588.19;;;8.82;75.38
37694;BME280;23531;50.122;8.644;2023-02-03T00:56:41;101573.75;;;8.99;75.61
37694;BME280;23531;50.122;8.644;2023-02-03T00:58:42;101563.72;;;8.85;75.11
37694;BME280;23531;50.122;8.644;2023-02-03T01:00:44;101545.09;;;8.91;75.87
37694;BME280;23531;50.122;8.644;2023-02-03T01:02:45;101522.34;;;8.71;75.62
37694;BME280;23531;50.122;8.644;2023-02-03T01:04:47;101520.94;;;8.99;75.66
37694;BME280;23531;50.122;8.644;2023-02-03T01:06:49;101521.78;;;8.92;75.19
37694;BME280;23531;50.122;8.644;2023-02-03T01:08:53;101503.94;;;8.68;76.37
37694;BME280;23531;50.122;8.644;2023-02-03T01:10:55;101526.34;;;8.75;76.61
37694;BME280;23531;50.122;8.644;2023-02-03T01:12:56;101542.22;;;8.93;76.00
37694;BME280;23531;50.122;8.644;2023-02-03T01:14:57;101556.81;;;8.98;76.31
37694;BME280;23531;50.122;8.644;2023-02-03T01:16:59;101558.47;;;8.99;75.89
37694;BME280;23531;50.122;8.644;2023-02-03T01:19:00;101545.09;;;8.83;75.65
37694;BME280;23531;50.122;8.644;2023-02-03T01:21:05;101538.06;;;8.82;76.35
37694;BME280;23531;50.122;8.644;2023-02-03T01:23:08;101537.06;;;8.91;76.78
37694;BME280;23531;50.122;8.644;2023-02-03T01:25:09;101545.81;;;8.77;76.26
37694;BME280;23531;50.122;8.644;2023-02-03T01:27:11;101543.78;;;8.79;76.86
37694;BME280;23531;50.122;8.644;2023-02-03T01:29:12;101547.66;;;8.77;76.40
37694;BME280;23531;50.122;8.644;2023-02-03T01:31:15;101534.00;;;8.94;76.88
37694;BME280;23531;50.122;8.644;2023-02-03T01:33:16;101545.88;;;9.08;76.47
37694;BME280;23531;50.122;8.644;2023-02-03T01:35:18;101543.41;;;8.98;76.25
37694;BME280;23531;50.122;8.644;2023-02-03T01:37:19;101541.22;;;8.94;76.49
37694;BME280;23531;50.122;8.644;2023-02-03T01:39:21;101529.50;;;8.87;76.48
37694;BME280;23531;50.122;8.644;2023-02-03T01:41:26;101524.38;;;8.69;76.95
37694;BME280;23531;50.122;8.644;2023-02-03T01:43:29;101528.34;;;8.81;77.09
37694;BME280;23531;50.122;8.644;2023-02-03T01:45:30;101534.41;;;8.75;76.78
37694;BME280;23531;50.122;8.644;2023-02-03T01:47:32;101525.69;;;8.73;77.64
37694;BME280;23531;50.122;8.644;2023-02-03T01:49:34;101518.44;;;8.82;77.25
37694;BME280;23531;50.122;8.644;2023-02-03T01:51:37;101515.94;;;8.88;76.86
37694;BME280;23531;50.122;8.644;2023-02-03T01:53:40;101515.44;;;8.85;77.14
37694;BME280;23531;50.122;8.644;2023-02-03T01:55:43;101511.56;;;8.87;77.59
37694;BME280;23531;50.122;8.644;2023-02-03T01:57:47;101509.03;;;8.94;76.37
37694;BME280;23531;50.122;8.644;2023-02-03T01:59:51;101524.00;;;8.80;76.98
37694;BME280;23531;50.122;8.644;2023-02-03T02:01:54;101514.59;;;8.84;77.32
37694;BME280;23531;50.122;8.644;2023-02-03T02:03:56;101504.59;;;8.62;78.30
37694;BME280;23531;50.122;8.644;2023-02-03T02:05:59;101503.56;;;8.71;78.44
37694;BME280;23531;50.122;8.644;2023-02-03T02:08:02;101502.91;;;8.77;78.01
37694;BME280;23531;50.122;8.644;2023-02-03T02:10:04;101502.81;;;8.93;77.69
37694;BME280;23531;50.122;8.644;2023-02-03T02:12:07;101496.00;;;8.91;76.71
37694;BME280;23531;50.122;8.644;2023-02-03T02:14:09;101496.00;;;8.83;77.78
37694;BME280;23531;50.122;8.644;2023-02-03T02:16:11;101491.16;;;8.70;78.37
37694;BME280;23531;50.122;8.644;2023-02-03T02:18:22;101494.88;;;8.61;78.77
37694;BME280;23531;50.122;8.644;2023-02-03T02:20:37;101503.94;;;8.52;79.07
37694;BME280;23531;50.122;8.644;2023-02-03T02:22:53;101507.97;;;8.56;78.80
37694;BME280;23531;50.122;8.644;2023-02-03T02:25:02;101506.41;;;8.69;79.06
37694;BME280;23531;50.122;8.644;2023-02-03T02:27:09;101529.06;;;8.67;78.74
37694;BME280;23531;50.122;8.644;2023-02-03T02:29:27;101524.00;;;8.80;78.91
37694;BME280;23531;50.122;8.644;2023-02-03T02:31:51;101520.00;;;8.68;78.87
37694;BME280;23531;50.122;8.644;2023-02-03T02:33:57;101534.75;;;8.80;79.44
37694;BME280;23531;50.122;8.644;2023-02-03T02:36:02;101525.84;;;8.71;78.66
37694;BME280;23531;50.122;8.644;2023-02-03T02:38:11;101520.78;;;8.85;78.95
37694;BME280;23531;50.122;8.644;2023-02-03T02:40:18;101521.84;;;8.67;78.65
37694;BME280;23531;50.122;8.644;2023-02-03T02:42:24;101535.09;;;8.61;78.44
37694;BME280;23531;50.122;8.644;2023-02-03T02:44:28;101528.19;;;8.74;78.98
37694;BME280;23531;50.122;8.644;2023-02-03T02:46:30;101532.41;;;8.69;78.72
37694;BME280;23531;50.122;8.644;2023-02-03T02:48:37;101545.94;;;8.84;78.88
37694;BME280;23531;50.122;8.644;2023-02-03T02:50:41;101543.78;;;8.79;78.53
37694;BME280;23531;50.122;8.644;2023-02-03T02:52:45;101547.66;;;8.77;78.55
37694;BME280;23531;50.122;8.644;2023-02-03T02:54:49;101544.09;;;8.84;78.47
37694;BME280;23531;50.122;8.644;2023-02-03T02:56:52;101552.97;;;8.85;78.53
37694;BME280;23531;50.122;8.644;2023-02-03T02:58:54;101548.13;;;8.88;77.94
37694;BME280;23531;50.122;8.644;2023-02-03T03:00:57;101556.13;;;8.96;78.17
37694;BME280;23531;50.122;8.644;2023-02-03T03:03:05;101542.22;;;8.93;78.41
37694;BME280;23531;50.122;8.644;2023-02-03T03:05:09;101541.75;;;8.89;77.67
37694;BME280;23531;50.122;8.644;2023-02-03T03:07:12;101531.22;;;8.71;78.97
37694;BME280;23531;50.122;8.644;2023-02-03T03:09:17;101525.38;;;8.68;79.19
37694;BME280;23531;50.122;8.644;2023-02-03T03:11:20;101530.00;;;8.82;79.29
37694;BME280;23531;50.122;8.644;2023-02-03T03:13:24;101535.34;;;8.98;79.28
37694;BME280;23531;50.122;8.644;2023-02-03T03:15:29;101535.50;;;8.97;79.12
37694;BME280;23531;50.122;8.644;2023-02-03T03:17:32;101535.50;;;8.97;78.92
37694;BME280;23531;50.122;8.644;2023-02-03T03:19:36;101543.53;;;9.05;79.55
37694;BME280;23531;50.122;8.644;2023-02-03T03:21:40;101546.75;;;9.00;79.98
37694;BME280;23531;50.122;8.644;2023-02-03T03:23:44;101549.91;;;9.04;79.53
37694;BME280;23531;50.122;8.644;2023-02-03T03:25:48;101546.06;;;8.98;79.58
37694;BME280;23531;50.122;8.644;2023-02-03T03:27:53;101548.38;;;9.09;79.61
37694;BME280;23531;50.122;8.644;2023-02-03T03:29:57;101531.31;;;8.94;79.67
37694;BME280;23531;50.122;8.644;2023-02-03T03:32:00;101530.31;;;8.95;80.67
37694;BME280;23531;50.122;8.644;2023-02-03T03:34:03;101517.75;;;8.96;80.33
37694;BME280;23531;50.122;8.644;2023-02-03T03:36:07;101494.78;;;9.01;79.83
37694;BME280;23531;50.122;8.644;2023-02-03T03:38:16;101487.66;;;8.61;81.76
37694;BME280;23531;50.122;8.644;2023-02-03T03:40:21;101495.03;;;8.67;82.03
37694;BME280;23531;50.122;8.644;2023-02-03T03:42:25;101486.81;;;8.77;82.62
37694;BME280;23531;50.122;8.644;2023-02-03T03:44:28;101485.94;;;8.85;81.67
37694;BME280;23531;50.122;8.644;2023-02-03T03:46:34;101490.03;;;8.64;82.11
37694;BME280;23531;50.122;8.644;2023-02-03T03:48:38;101488.69;;;8.52;82.90
37694;BME280;23531;50.122;8.644;2023-02-03T03:50:40;101494.22;;;8.59;82.88
37694;BME280;23531;50.122;8.644;2023-02-03T03:52:44;101505.75;;;8.59;83.23
37694;BME280;23531;50.122;8.644;2023-02-03T03:54:48;101503.75;;;8.61;82.67
37694;BME280;23531;50.122;8.644;2023-02-03T03:56:50;101502.06;;;8.77;82.89
37694;BME280;23531;50.122;8.644;2023-02-03T03:58:53;101498.56;;;8.68;81.58
37694;BME280;23531;50.122;8.644;2023-02-03T04:00:56;101502.59;;;8.64;81.44
37694;BME280;23531;50.122;8.644;2023-02-03T04:03:00;101485.69;;;8.55;82.22
37694;BME280;23531;50.122;8.644;2023-02-03T04:05:03;101498.75;;;8.50;82.06
37694;BME280;23531;50.122;8.644;2023-02-03T04:07:05;101487.16;;;8.58;81.84
37694;BME280;23531;50.122;8.644;2023-02-03T04:09:06;101479.13;;;8.58;81.81
37694;BME280;23531;50.122;8.644;2023-02-03T04:11:09;101476.66;;;8.56;81.41
37694;BME280;23531;50.122;8.644;2023-02-03T04:13:10;101489.84;;;8.58;81.32
37694;BME280;23531;50.122;8.644;2023-02-03T04:15:12;101503.94;;;8.60;81.60
37694;BME280;23531;50.122;8.644;2023-02-03T04:17:13;101496.88;;;8.67;80.98
37694;BME280;23531;50.122;8.644;2023-02-03T04:19:14;101507.09;;;8.80;80.75
37694;BME280;23531;50.122;8.644;2023-02-03T04:21:15;101508.63;;;8.66;80.32
37694;BME280;23531;50.122;8.644;2023-02-03T04:23:17;101517.28;;;8.84;80.68
37694;BME280;23531;50.122;8.644;2023-02-03T04:25:19;101522.13;;;8.81;80.38
37694;BME280;23531;50.122;8.644;2023-02-03T04:27:21;101521.13;;;8.82;80.66
37694;BME280;23531;50.122;8.644;2023-02-03T04:29:23;101512.25;;;8.89;80.59
37694;BME280;23531;50.122;8.644;2023-02-03T04:31:24;101509.03;;;8.94;80.58
37694;BME280;23531;50.122;8.644;2023-02-03T04:33:25;101487.41;;;8.95;80.09
37694;BME280;23531;50.122;8.644;2023-02-03T04:35:28;101480.91;;;8.82;80.06
37694;BME280;23531;50.122;8.644;2023-02-03T04:37:29;101495.16;;;8.82;80.37
37694;BME280;23531;50.122;8.644;2023-02-03T04:39:31;101516.94;;;8.87;80.97
37694;BME280;23531;50.122;8.644;2023-02-03T04:41:32;101536.69;;;8.94;81.03
37694;BME280;23531;50.122;8.644;2023-02-03T04:43:35;101547.59;;;8.93;81.11
37694;BME280;23531;50.122;8.644;2023-02-03T04:45:37;101549.28;;;8.86;81.33
37694;BME280;23531;50.122;8.644;2023-02-03T04:47:38;101555.66;;;8.85;81.80
37694;BME280;23531;50.122;8.644;2023-02-03T04:49:39;101552.81;;;8.86;81.86
37694;BME280;23531;50.122;8.644;2023-02-03T04:51:41;101551.81;;;8.87;81.70
37694;BME280;23531;50.122;8.644;2023-02-03T04:53:43;101534.38;;;8.83;82.18
37694;BME280;23531;50.122;8.644;2023-02-03T04:55:45;101521.31;;;8.88;82.38
37694;BME280;23531;50.122;8.644;2023-02-03T04:57:46;101516.78;;;8.89;82.62
37694;BME280;23531;50.122;8.644;2023-02-03T04:59:49;101506.41;;;8.69;82.99
37694;BME280;23531;50.122;8.644;2023-02-03T05:01:50;101508.28;;;8.61;83.46
37694;BME280;23531;50.122;8.644;2023-02-03T05:03:51;101510.97;;;8.69;84.50
37694;BME280;23531;50.122;8.644;2023-02-03T05:05:55;101516.00;;;8.64;84.14
37694;BME280;23531;50.122;8.644;2023-02-03T05:07:56;101520.66;;;8.78;84.11
37694;BME280;23531;50.122;8.644;2023-02-03T05:09:58;101519.66;;;8.79;83.89
37694;BME280;23531;50.122;8.644;2023-02-03T05:11:59;101519.34;;;8.58;83.97
37694;BME280;23531;50.122;8.644;2023-02-03T05:14:00;101495.38;;;8.64;84.41
37694;BME280;23531;50.122;8.644;2023-02-03T05:16:03;101484.50;;;8.66;84.02
37694;BME280;23531;50.122;8.644;2023-02-03T05:18:06;101472.25;;;8.63;84.66
37694;BME280;23531;50.122;8.644;2023-02-03T05:20:08;101472.75;;;8.59;84.49
37694;BME280;23531;50.122;8.644;2023-02-03T05:22:10;101474.78;;;8.49;85.22
37694;BME280;23531;50.122;8.644;2023-02-03T05:24:11;101482.97;;;8.63;84.92
37694;BME280;23531;50.122;8.644;2023-02-03T05:26:12;101477.75;;;8.78;84.69
37694;BME280;23531;50.122;8.644;2023-02-03T05:28:14;101468.72;;;8.71;84.10
37694;BME280;23531;50.122;8.644;2023-02-03T05:30:15;101451.63;;;8.72;84.28
37694;BME280;23531;50.122;8.644;2023-02-03T05:32:18;101458.69;;;8.65;83.42
37694;BME280;23531;50.122;8.644;2023-02-03T05:34:19;101449.97;;;8.63;83.71
37694;BME280;23531;50.122;8.644;2023-02-03T05:36:20;101457.34;;;8.69;83.04
37694;BME280;23531;50.122;8.644;2023-02-03T05:38:21;101465.06;;;8.64;83.20
37694;BME280;23531;50.122;8.644;2023-02-03T05:40:24;101459.38;;;8.51;83.25
37694;BME280;23531;50.122;8.644;2023-02-03T05:42:46;101453.94;;;8.75;83.18
37694;BME280;23531;50.122;8.644;2023-02-03T05:44:47;101453.44;;;8.71;82.34
37694;BME280;23531;50.122;8.644;2023-02-03T05:46:48;101456.09;;;8.88;82.79
37694;BME280;23531;50.122;8.644;2023-02-03T05:48:51;101459.78;;;8.87;81.50
37694;BME280;23531;50.122;8.644;2023-02-03T05:50:53;101467.03;;;8.70;81.59
37694;BME280;23531;50.122;8.644;2023-02-03T05:52:54;101466.66;;;8.89;81.96
37694;BME280;23531;50.122;8.644;2023-02-03T05:54:55;101465.91;;;9.03;81.73
37694;BME280;23531;50.122;8.644;2023-02-03T05:56:57;101454.88;;;8.98;81.11
37694;BME280;23531;50.122;8.644;2023-02-03T05:58:58;101463.38;;;8.63;80.87
37694;BME280;23531;50.122;8.644;2023-02-03T06:00:59;101463.03;;;8.66;81.99
37694;BME280;23531;50.122;8.644;2023-02-03T06:03:00;101471.06;;;8.74;81.81
37694;BME280;23531;50.122;8.644;2023-02-03T06:05:04;101460.31;;;8.74;81.55
37694;BME280;23531;50.122;8.644;2023-02-03T06:07:05;101474.00;;;8.95;81.41
37694;BME280;23531;50.122;8.644;2023-02-03T06:09:07;101466.50;;;8.83;80.42
37694;BME280;23531;50.122;8.644;2023-02-03T06:11:08;101464.34;;;8.70;81.15
37694;BME280;23531;50.122;8.644;2023-02-03T06:13:10;101477.63;;;8.63;81.89
37694;BME280;23531;50.122;8.644;2023-02-03T06:15:12;101474.09;;;8.63;81.27
37694;BME280;23531;50.122;8.644;2023-02-03T06:17:14;101462.38;;;8.64;81.86
37694;BME280;23531;50.122;8.644;2023-02-03T06:19:15;101458.28;;;8.84;81.73
37694;BME280;23531;50.122;8.644;2023-02-03T06:21:18;101463.69;;;8.76;80.54
37694;BME280;23531;50.122;8.644;2023-02-03T06:23:19;101462.72;;;8.69;80.44
37694;BME280;23531;50.122;8.644;2023-02-03T06:25:21;101469.03;;;8.76;80.26
37694;BME280;23531;50.122;8.644;2023-02-03T06:27:23;101475.56;;;8.73;80.87
37694;BME280;23531;50.122;8.644;2023-02-03T06:29:24;101466.69;;;8.73;80.33
37694;BME280;23531;50.122;8.644;2023-02-03T06:31:25;101458.31;;;8.76;79.88
37694;BME280;23531;50.122;8.644;2023-02-03T06:33:27;101466.03;;;8.71;80.30
37694;BME280;23531;50.122;8.644;2023-02-03T06:35:28;101459.28;;;8.83;80.24
37694;BME280;23531;50.122;8.644;2023-02-03T06:37:31;101472.59;;;8.68;79.21
37694;BME280;23531;50.122;8.644;2023-02-03T06:39:32;101471.59;;;8.61;80.04
37694;BME280;23531;50.122;8.644;2023-02-03T06:41:34;101463.31;;;8.87;80.18
37694;BME280;23531;50.122;8.644;2023-02-03T06:43:35;101459.81;;;8.79;79.34
37694;BME280;23531;50.122;8.644;2023-02-03T06:45:36;101463.72;;;8.68;79.79
37694;BME280;23531;50.122;8.644;2023-02-03T06:47:38;101472.75;;;8.67;79.56
37694;BME280;23531;50.122;8.644;2023-02-03T06:49:40;101482.47;;;8.68;79.76
37694;BME280;23531;50.122;8.644;2023-02-03T06:51:41;101484.31;;;8.67;79.45
37694;BME280;23531;50.122;8.644;2023-02-03T06:53:44;101490.50;;;8.76;79.78
37694;BME280;23531;50.122;8.644;2023-02-03T06:55:45;101487.78;;;8.84;79.67
37694;BME280;23531;50.122;8.644;2023-02-03T06:57:47;101472.59;;;8.68;79.34
37694;BME280;23531;50.122;8.644;2023-02-03T06:59:49;101478.13;;;8.59;80.05
37694;BME280;23531;50.122;8.644;2023-02-03T07:01:50;101478.94;;;8.76;79.65
37694;BME280;23531;50.122;8.644;2023-02-03T07:03:52;101471.59;;;8.61;79.71
37694;BME280;23531;50.122;8.644;2023-02-03T07:05:56;101465.72;;;8.58;80.13
37694;BME280;23531;50.122;8.644;2023-02-03T07:07:58;101467.91;;;8.62;79.67
37694;BME280;23531;50.122;8.644;2023-02-03T07:10:00;101472.22;;;8.71;80.16
37694;BME280;23531;50.122;8.644;2023-02-03T07:12:02;101471.38;;;8.71;79.68
37694;BME280;23531;50.122;8.644;2023-02-03T07:14:03;101482.09;;;8.71;79.64
37694;BME280;23531;50.122;8.644;2023-02-03T07:16:05;101475.44;;;8.67;79.85
37694;BME280;23531;50.122;8.644;2023-02-03T07:18:06;101480.44;;;8.70;79.94
37694;BME280;23531;50.122;8.644;2023-02-03T07:20:08;101481.56;;;8.84;80.28
37694;BME280;23531;50.122;8.644;2023-02-03T07:22:09;101472.53;;;8.85;79.50
37694;BME280;23531;50.122;8.644;2023-02-03T07:24:11;101476.53;;;8.81;79.84
37694;BME280;23531;50.122;8.644;2023-02-03T07:26:14;101475.88;;;8.87;78.84
37694;BME280;23531;50.122;8.644;2023-02-03T07:28:15;101454.75;;;8.84;79.14
37694;BME280;23531;50.122;8.644;2023-02-03T07:30:16;101464.81;;;8.90;78.94
37694;BME280;23531;50.122;8.644;2023-02-03T07:32:18;101458.78;;;8.88;78.87
37694;BME280;23531;50.122;8.644;2023-02-03T07:34:19;101462.41;;;8.95;79.14
37694;BME280;23531;50.122;8.644;2023-02-03T07:36:21;101468.59;;;9.03;78.84
37694;BME280;23531;50.122;8.644;2023-02-03T07:38:23;101473.44;;;9.08;78.26
37694;BME280;23531;50.122;8.644;2023-02-03T07:40:25;101473.59;;;9.06;77.72
37694;BME280;23531;50.122;8.644;2023-02-03T07:42:28;101481.66;;;9.06;77.93
37694;BME280;23531;50.122;8.644;2023-02-03T07:44:29;101484.50;;;9.05;77.44
37694;BME280;23531;50.122;8.644;2023-02-03T07:46:30;101481.53;;;9.00;77.36
37694;BME280;23531;50.122;8.644;2023-02-03T07:48:32;101477.53;;;8.88;77.16
37694;BME280;23531;50.122;8.644;2023-02-03T07:50:33;101479.84;;;8.99;76.67
37694;BME280;23531;50.122;8.644;2023-02-03T07:52:35;101482.69;;;8.97;77.06
37694;BME280;23531;50.122;8.644;2023-02-03T07:54:36;101482.69;;;8.97;76.42
37694;BME280;23531;50.122;8.644;2023-02-03T07:56:37;101485.38;;;8.97;76.56
37694;BME280;23531;50.122;8.644;2023-02-03T07:58:40;101492.03;;;9.09;76.83
37694;BME280;23531;50.122;8.644;2023-02-03T08:00:41;101472.25;;;9.10;76.29
37694;BME280;23531;50.122;8.644;2023-02-03T08:02:43;101484.50;;;9.05;76.17
37694;BME280;23531;50.122;8.644;2023-02-03T08:04:45;101486.97;;;9.15;75.60
37694;BME280;23531;50.122;8.644;2023-02-03T08:06:47;101488.97;;;9.21;76.19
37694;BME280;23531;50.122;8.644;2023-02-03T08:08:49;101493.84;;;9.25;75.54
37694;BME280;23531;50.122;8.644;2023-02-03T08:10:50;101492.31;;;9.23;75.42
37694;BME280;23531;50.122;8.644;2023-02-03T08:12:52;101479.25;;;9.20;75.13
37694;BME280;23531;50.122;8.644;2023-02-03T08:14:54;101481.41;;;9.24;75.43
37694;BME280;23531;50.122;8.644;2023-02-03T08:16:56;101483.13;;;9.17;75.14
37694;BME280;23531;50.122;8.644;2023-02-03T08:18:57;101463.66;;;9.15;75.02
37694;BME280;23531;50.122;8.644;2023-02-03T08:20:58;101465.16;;;9.18;74.68
37694;BME280;23531;50.122;8.644;2023-02-03T08:23:03;101467.47;;;9.29;74.71
37694;BME280;23531;50.122;8.644;2023-02-03T08:25:07;101466.28;;;9.31;74.47
37694;BME280;23531;50.122;8.644;2023-02-03T08:27:08;101460.13;;;9.23;74.45
37694;BME280;23531;50.122;8.644;2023-02-03T08:29:10;101462.63;;;9.24;74.63
37694;BME280;23531;50.122;8.644;2023-02-03T08:31:13;101466.63;;;9.28;74.25
37694;BME280;23531;50.122;8.644;2023-02-03T08:33:14;101473.97;;;9.34;74.26
37694;BME280;23531;50.122;8.644;2023-02-03T08:35:15;101461.69;;;9.40;73.40
37694;BME280;23531;50.122;8.644;2023-02-03T08:37:18;101450.59;;;9.43;73.64
37694;BME280;23531;50.122;8.644;2023-02-03T08:39:20;101462.53;;;9.40;73.73
37694;BME280;23531;50.122;8.644;2023-02-03T08:41:22;101468.56;;;9.42;73.51
37694;BME280;23531;50.122;8.644;2023-02-03T08:43:23;101459.16;;;9.46;73.48
37694;BME280;23531;50.122;8.644;2023-02-03T08:45:24;101458.94;;;9.48;73.34
37694;BME280;23531;50.122;8.644;2023-02-03T08:47:27;101456.41;;;9.55;73.21
37694;BME280;23531;50.122;8.644;2023-02-03T08:49:28;101444.50;;;9.49;72.63
37694;BME280;23531;50.122;8.644;2023-02-03T08:51:30;101448.69;;;9.52;72.83
37694;BME280;23531;50.122;8.644;2023-02-03T08:53:31;101441.66;;;9.51;72.51
37694;BME280;23531;50.122;8.644;2023-02-03T08:55:37;101448.03;;;9.50;72.57
37694;BME280;23531;50.122;8.644;2023-02-03T08:57:38;101453.38;;;9.58;72.65
37694;BME280;23531;50.122;8.644;2023-02-03T08:59:41;101445.50;;;9.56;72.45
37694;BME280;23531;50.122;8.644;2023-02-03T09:01:43;101437.59;;;9.55;72.12
37694;BME280;23531;50.122;8.644;2023-02-03T09:03:48;101431.88;;;9.58;72.17
37694;BME280;23531;50.122;8.644;2023-02-03T09:05:50;101425.97;;;9.62;71.55
37694;BME280;23531;50.122;8.644;2023-02-03T09:07:52;101416.91;;;9.63;71.01
37694;BME280;23531;50.122;8.644;2023-02-03T09:09:53;101425.44;;;9.67;70.86
37694;BME280;23531;50.122;8.644;2023-02-03T09:11:54;101426.63;;;9.64;70.64
37694;BME280;23531;50.122;8.644;2023-02-03T09:14:04;101436.66;;;9.70;70.71
37694;BME280;23531;50.122;8.644;2023-02-03T09:16:05;101446.56;;;9.70;70.45
37694;BME280;23531;50.122;8.644;2023-02-03T09:18:07;101454.81;;;9.68;70.55
37694;BME280;23531;50.122;8.644;2023-02-03T09:20:10;101459.28;;;9.76;70.56
37694;BME280;23531;50.122;8.644;2023-02-03T09:22:12;101461.13;;;9.75;70.21
37694;BME280;23531;50.122;8.644;2023-02-03T09:24:13;101468.50;;;9.73;69.53
37694;BME280;23531;50.122;8.644;2023-02-03T09:26:18;101475.28;;;9.69;69.40
37694;BME280;23531;50.122;8.644;2023-02-03T09:28:19;101474.53;;;9.75;69.97
37694;BME280;23531;50.122;8.644;2023-02-03T09:30:21;101485.94;;;9.77;69.80
37694;BME280;23531;50.122;8.644;2023-02-03T09:32:22;101481.59;;;9.76;69.28
37694;BME280;23531;50.122;8.644;2023-02-03T09:34:23;101477.22;;;9.75;69.49
37694;BME280;23531;50.122;8.644;2023-02-03T09:36:26;101462.44;;;9.79;69.83
37694;BME280;23531;50.122;8.644;2023-02-03T09:38:27;101464.13;;;9.80;69.60
37694;BME280;23531;50.122;8.644;2023-02-03T09:40:29;101466.59;;;9.82;69.32
37694;BME280;23531;50.122;8.644;2023-02-03T09:42:42;101457.91;;;9.80;68.75
37694;BME280;23531;50.122;8.644;2023-02-03T09:44:52;101458.66;;;9.89;69.15
37694;BME280;23531;50.122;8.644;2023-02-03T09:46:58;101456.09;;;9.95;68.91
37694;BME280;23531;50.122;8.644;2023-02-03T09:49:03;101450.53;;;9.97;68.75
37694;BME280;23531;50.122;8.644;2023-02-03T09:51:12;101456.50;;;10.07;69.10
37694;BME280;23531;50.122;8.644;2023-02-03T09:53:22;101446.41;;;10.09;68.34
37694;BME280;23531;50.122;8.644;2023-02-03T09:55:26;101443.44;;;10.04;67.93
37694;BME280;23531;50.122;8.644;2023-02-03T09:57:30;101442.38;;;10.05;67.94
37694;BME280;23531;50.122;8.644;2023-02-03T09:59:32;101437.16;;;10.11;67.95
37694;BME280;23531;50.122;8.644;2023-02-03T10:01:37;101445.69;;;10.15;67.29
37694;BME280;23531;50.122;8.644;2023-02-03T10:03:42;101441.94;;;10.16;67.14
37694;BME280;23531;50.122;8.644;2023-02-03T10:05:49;101446.69;;;10.14;67.24
37694;BME280;23531;50.122;8.644;2023-02-03T10:07:58;101446.53;;;10.15;67.54
37694;BME280;23531;50.122;8.644;2023-02-03T10:10:05;101459.28;;;10.36;66.99
37694;BME280;23531;50.122;8.644;2023-02-03T10:12:15;101453.97;;;10.28;67.28
37694;BME280;23531;50.122;8.644;2023-02-03T10:14:26;101445.47;;;10.25;67.38
37694;BME280;23531;50.122;8.644;2023-02-03T10:16:36;101446.47;;;10.24;67.41
37694;BME280;23531;50.122;8.644;2023-02-03T10:18:39;101451.19;;;10.22;66.92
37694;BME280;23531;50.122;8.644;2023-02-03T10:20:42;101440.25;;;10.23;66.86
37694;BME280;23531;50.122;8.644;2023-02-03T10:22:46;101442.94;;;10.23;66.89
37694;BME280;23531;50.122;8.644;2023-02-03T10:24:49;101451.84;;;10.24;66.97
37694;BME280;23531;50.122;8.644;2023-02-03T10:26:55;101456.03;;;10.26;66.45
37694;BME280;23531;50.122;8.644;2023-02-03T10:28:57;101446.28;;;10.25;66.85
37694;BME280;23531;50.122;8.644;2023-02-03T10:31:05;101441.38;;;10.29;66.70
37694;BME280;23531;50.122;8.644;2023-02-03T10:33:09;101447.41;;;10.31;66.42
37694;BME280;23531;50.122;8.644;2023-02-03T10:35:11;101448.31;;;10.23;66.49
37694;BME280;23531;50.122;8.644;2023-02-03T10:37:14;101452.94;;;10.29;66.52
37694;BME280;23531;50.122;8.644;2023-02-03T10:39:19;101460.75;;;10.24;66.69
37694;BME280;23531;50.122;8.644;2023-02-03T10:41:24;101464.94;;;10.27;67.24
37694;BME280;23531;50.122;8.644;2023-02-03T10:43:29;101461.94;;;10.22;66.44
37694;BME280;23531;50.122;8.644;2023-02-03T10:45:51;101470.19;;;10.20;66.98
37694;BME280;23531;50.122;8.644;2023-02-03T10:47:53;101456.44;;;10.15;66.82
37694;BME280;23531;50.122;8.644;2023-02-03T10:49:56;101466.78;;;10.26;66.75
37694;BME280;23531;50.122;8.644;2023-02-03T10:51:59;101467.53;;;10.35;66.88